sensor_id;sensor_type;location;lat;lon;timestamp;P1;durP1;ratioP1;P2;durP2;ratioP2
45007;SDS011;30743;52.008;5.644;2023-06-22T00:04:42;4.10;;;3.65;;
45007;SDS011;30743;52.008;5.644;2023-06-22T00:07:07;6.13;;;3.70;;
45007;SDS011;30743;52.008;5.644;2023-06-22T00:09:33;6.00;;;3.47;;
45007;SDS011;30743;52.008;5.644;2023-06-22T00:11:59;5.63;;;3.75;;
45007;SDS011;30743;52.008;5.644;2023-06-22T00:14:25;6.28;;;3.88;;
45007;SDS011;30743;52.008;5.644;2023-06-22T00:16:50;4.75;;;4.25;;
45007;SDS011;30743;52.008;5.644;2023-06-22T00:19:22;5.40;;;4.07;;
45007;SDS011;30743;52.008;5.644;2023-06-22T00:21:48;4.82;;;4.18;;
45007;SDS011;30743;52.008;5.644;2023-06-22T00:24:17;8.40;;;4.57;;
45007;SDS011;30743;52.008;5.644;2023-06-22T00:26:47;7.22;;;4.65;;
45007;SDS011;30743;52.008;5.644;2023-06-22T00:29:13;8.05;;;4.25;;
45007;SDS011;30743;52.008;5.644;2023-06-22T00:31:39;4.55;;;3.90;;
45007;SDS011;30743;52.008;5.644;2023-06-22T00:34:04;5.05;;;4.07;;
45007;SDS011;30743;52.008;5.644;2023-06-22T00:36:31;5.75;;;4.15;;
45007;SDS011;30743;52.008;5.644;2023-06-22T00:38:57;7.05;;;4.47;;
45007;SDS011;30743;52.008;5.644;2023-06-22T00:41:22;5.32;;;4.10;;
45007;SDS011;30743;52.008;5.644;2023-06-22T00:43:48;5.15;;;4.50;;
45007;SDS011;30743;52.008;5.644;2023-06-22T00:46:13;5.90;;;4.45;;
45007;SDS011;30743;52.008;5.644;2023-06-22T00:48:39;5.93;;;3.95;;
45007;SDS011;30743;52.008;5.644;2023-06-22T00:53:34;5.55;;;4.20;;
45007;SDS011;30743;52.008;5.644;2023-06-22T00:56:02;5.72;;;4.35;;
45007;SDS011;30743;52.008;5.644;2023-06-22T00:58:28;6.25;;;5.07;;
45007;SDS011;30743;52.008;5.644;2023-06-22T01:00:55;5.70;;;4.70;;
45007;SDS011;30743;52.008;5.644;2023-06-22T01:03:20;6.28;;;4.32;;
45007;SDS011;30743;52.008;5.644;2023-06-22T01:05:46;7.22;;;4.20;;
45007;SDS011;30743;52.008;5.644;2023-06-22T01:11:09;5.88;;;4.20;;
45007;SDS011;30743;52.008;5.644;2023-06-22T01:13:43;5.88;;;4.63;;
45007;SDS011;30743;52.008;5.644;2023-06-22T01:18:40;5.60;;;4.43;;
45007;SDS011;30743;52.008;5.644;2023-06-22T01:21:07;4.90;;;4.37;;
45007;SDS011;30743;52.008;5.644;2023-06-22T01:26:08;7.72;;;5.40;;
45007;SDS011;30743;52.008;5.644;2023-06-22T01:28:45;6.53;;;5.10;;
45007;SDS011;30743;52.008;5.644;2023-06-22T01:31:19;6.18;;;5.10;;
45007;SDS011;30743;52.008;5.644;2023-06-22T01:33:53;6.65;;;5.00;;
45007;SDS011;30743;52.008;5.644;2023-06-22T01:36:20;8.50;;;5.47;;
45007;SDS011;30743;52.008;5.644;2023-06-22T01:38:48;6.80;;;5.60;;
45007;SDS011;30743;52.008;5.644;2023-06-22T01:41:14;5.82;;;5.22;;
45007;SDS011;30743;52.008;5.644;2023-06-22T01:43:41;6.00;;;5.40;;
45007;SDS011;30743;52.008;5.644;2023-06-22T01:46:07;6.97;;;5.47;;
45007;SDS011;30743;52.008;5.644;2023-06-22T01:48:33;9.63;;;5.65;;
45007;SDS011;30743;52.008;5.644;2023-06-22T01:50:59;5.93;;;5.32;;
45007;SDS011;30743;52.008;5.644;2023-06-22T01:53:25;7.90;;;5.43;;
45007;SDS011;30743;52.008;5.644;2023-06-22T01:55:51;9.45;;;5.97;;
45007;SDS011;30743;52.008;5.644;2023-06-22T01:58:17;6.65;;;5.63;;
45007;SDS011;30743;52.008;5.644;2023-06-22T02:00:48;6.70;;;5.07;;
45007;SDS011;30743;52.008;5.644;2023-06-22T02:03:19;8.23;;;5.28;;
45007;SDS011;30743;52.008;5.644;2023-06-22T02:05:49;6.53;;;5.63;;
45007;SDS011;30743;52.008;5.644;2023-06-22T02:08:22;7.45;;;5.20;;
45007;SDS011;30743;52.008;5.644;2023-06-22T02:10:50;7.43;;;5.10;;
45007;SDS011;30743;52.008;5.644;2023-06-22T02:13:17;8.30;;;5.20;;
45007;SDS011;30743;52.008;5.644;2023-06-22T02:15:44;8.25;;;5.22;;
45007;SDS011;30743;52.008;5.644;2023-06-22T02:18:11;7.25;;;5.28;;
45007;SDS011;30743;52.008;5.644;2023-06-22T02:20:37;6.38;;;4.88;;
45007;SDS011;30743;52.008;5.644;2023-06-22T02:23:05;12.43;;;4.50;;
45007;SDS011;30743;52.008;5.644;2023-06-22T02:25:32;6.78;;;4.30;;
45007;SDS011;30743;52.008;5.644;2023-06-22T02:27:58;7.00;;;4.75;;
45007;SDS011;30743;52.008;5.644;2023-06-22T02:30:23;5.78;;;4.60;;
45007;SDS011;30743;52.008;5.644;2023-06-22T02:32:49;6.35;;;5.18;;
45007;SDS011;30743;52.008;5.644;2023-06-22T02:35:16;5.10;;;4.55;;
45007;SDS011;30743;52.008;5.644;2023-06-22T02:37:42;6.72;;;4.95;;
45007;SDS011;30743;52.008;5.644;2023-06-22T02:40:08;6.93;;;5.18;;
45007;SDS011;30743;52.008;5.644;2023-06-22T02:42:34;5.85;;;4.60;;
45007;SDS011;30743;52.008;5.644;2023-06-22T02:45:00;5.72;;;5.13;;
45007;SDS011;30743;52.008;5.644;2023-06-22T02:47:26;8.45;;;5.22;;
45007;SDS011;30743;52.008;5.644;2023-06-22T02:49:51;7.72;;;5.00;;
45007;SDS011;30743;52.008;5.644;2023-06-22T02:52:17;6.00;;;4.57;;
45007;SDS011;30743;52.008;5.644;2023-06-22T02:54:42;5.97;;;5.18;;
45007;SDS011;30743;52.008;5.644;2023-06-22T02:57:10;6.93;;;5.38;;
45007;SDS011;30743;52.008;5.644;2023-06-22T02:59:38;6.43;;;5.55;;
45007;SDS011;30743;52.008;5.644;2023-06-22T03:02:05;6.72;;;5.88;;
45007;SDS011;30743;52.008;5.644;2023-06-22T03:04:31;5.90;;;5.07;;
45007;SDS011;30743;52.008;5.644;2023-06-22T03:06:57;8.32;;;5.63;;
45007;SDS011;30743;52.008;5.644;2023-06-22T03:09:26;8.70;;;5.05;;
45007;SDS011;30743;52.008;5.644;2023-06-22T03:11:52;6.68;;;5.60;;
45007;SDS011;30743;52.008;5.644;2023-06-22T03:14:18;6.93;;;5.68;;
45007;SDS011;30743;52.008;5.644;2023-06-22T03:16:44;7.25;;;5.63;;
45007;SDS011;30743;52.008;5.644;2023-06-22T03:19:09;7.68;;;5.20;;
45007;SDS011;30743;52.008;5.644;2023-06-22T03:21:37;9.98;;;5.57;;
45007;SDS011;30743;52.008;5.644;2023-06-22T03:24:03;10.45;;;5.55;;
45007;SDS011;30743;52.008;5.644;2023-06-22T03:26:30;14.38;;;6.07;;
45007;SDS011;30743;52.008;5.644;2023-06-22T03:28:55;7.07;;;5.57;;
45007;SDS011;30743;52.008;5.644;2023-06-22T03:31:21;7.82;;;5.95;;
45007;SDS011;30743;52.008;5.644;2023-06-22T03:33:47;8.10;;;5.80;;
45007;SDS011;30743;52.008;5.644;2023-06-22T03:36:17;8.80;;;5.53;;
45007;SDS011;30743;52.008;5.644;2023-06-22T03:38:47;8.20;;;5.72;;
45007;SDS011;30743;52.008;5.644;2023-06-22T03:41:13;6.82;;;5.53;;
45007;SDS011;30743;52.008;5.644;2023-06-22T03:43:39;7.07;;;5.30;;
45007;SDS011;30743;52.008;5.644;2023-06-22T03:46:04;8.52;;;5.60;;
45007;SDS011;30743;52.008;5.644;2023-06-22T03:48:30;6.45;;;5.63;;
45007;SDS011;30743;52.008;5.644;2023-06-22T03:50:56;14.45;;;6.65;;
45007;SDS011;30743;52.008;5.644;2023-06-22T03:53:21;11.00;;;5.70;;
45007;SDS011;30743;52.008;5.644;2023-06-22T03:55:48;11.25;;;5.90;;
45007;SDS011;30743;52.008;5.644;2023-06-22T03:58:15;10.93;;;6.05;;
45007;SDS011;30743;52.008;5.644;2023-06-22T04:00:41;7.40;;;5.35;;
45007;SDS011;30743;52.008;5.644;2023-06-22T04:03:06;6.95;;;5.50;;
45007;SDS011;30743;52.008;5.644;2023-06-22T04:05:32;8.07;;;5.95;;
45007;SDS011;30743;52.008;5.644;2023-06-22T04:07:58;8.45;;;5.38;;
45007;SDS011;30743;52.008;5.644;2023-06-22T04:10:23;7.72;;;6.28;;
45007;SDS011;30743;52.008;5.644;2023-06-22T04:12:49;8.63;;;6.78;;
45007;SDS011;30743;52.008;5.644;2023-06-22T04:15:14;6.32;;;5.40;;
45007;SDS011;30743;52.008;5.644;2023-06-22T04:17:40;7.63;;;6.05;;
45007;SDS011;30743;52.008;5.644;2023-06-22T04:20:05;8.18;;;7.13;;
45007;SDS011;30743;52.008;5.644;2023-06-22T04:22:31;8.57;;;6.43;;
45007;SDS011;30743;52.008;5.644;2023-06-22T04:24:57;10.60;;;6.45;;
45007;SDS011;30743;52.008;5.644;2023-06-22T04:27:23;7.25;;;6.45;;
45007;SDS011;30743;52.008;5.644;2023-06-22T04:29:48;8.50;;;6.20;;
45007;SDS011;30743;52.008;5.644;2023-06-22T04:32:17;9.68;;;8.57;;
45007;SDS011;30743;52.008;5.644;2023-06-22T04:34:43;12.90;;;11.05;;
45007;SDS011;30743;52.008;5.644;2023-06-22T04:37:09;15.77;;;11.63;;
45007;SDS011;30743;52.008;5.644;2023-06-22T04:39:34;13.98;;;11.98;;
45007;SDS011;30743;52.008;5.644;2023-06-22T04:42:00;15.02;;;11.98;;
45007;SDS011;30743;52.008;5.644;2023-06-22T04:44:26;14.00;;;11.75;;
45007;SDS011;30743;52.008;5.644;2023-06-22T04:46:52;14.23;;;12.73;;
45007;SDS011;30743;52.008;5.644;2023-06-22T04:49:24;14.70;;;11.82;;
45007;SDS011;30743;52.008;5.644;2023-06-22T04:51:57;16.20;;;14.25;;
45007;SDS011;30743;52.008;5.644;2023-06-22T04:54:24;15.35;;;13.70;;
45007;SDS011;30743;52.008;5.644;2023-06-22T04:56:49;16.42;;;14.70;;
45007;SDS011;30743;52.008;5.644;2023-06-22T04:59:24;16.95;;;15.05;;
45007;SDS011;30743;52.008;5.644;2023-06-22T05:01:58;18.25;;;15.10;;
45007;SDS011;30743;52.008;5.644;2023-06-22T05:04:25;20.38;;;14.90;;
45007;SDS011;30743;52.008;5.644;2023-06-22T05:06:52;21.15;;;16.23;;
45007;SDS011;30743;52.008;5.644;2023-06-22T05:09:18;19.08;;;16.55;;
45007;SDS011;30743;52.008;5.644;2023-06-22T05:11:44;18.33;;;16.42;;
45007;SDS011;30743;52.008;5.644;2023-06-22T05:14:10;18.88;;;16.23;;
45007;SDS011;30743;52.008;5.644;2023-06-22T05:16:36;19.88;;;16.40;;
45007;SDS011;30743;52.008;5.644;2023-06-22T05:19:02;19.58;;;16.20;;
45007;SDS011;30743;52.008;5.644;2023-06-22T05:21:29;17.55;;;15.75;;
45007;SDS011;30743;52.008;5.644;2023-06-22T05:23:55;17.83;;;14.73;;
45007;SDS011;30743;52.008;5.644;2023-06-22T05:26:25;15.52;;;13.98;;
45007;SDS011;30743;52.008;5.644;2023-06-22T05:28:51;16.83;;;15.02;;
45007;SDS011;30743;52.008;5.644;2023-06-22T05:31:17;17.17;;;14.38;;
45007;SDS011;30743;52.008;5.644;2023-06-22T05:33:44;16.85;;;14.35;;
45007;SDS011;30743;52.008;5.644;2023-06-22T05:36:11;15.70;;;12.82;;
45007;SDS011;30743;52.008;5.644;2023-06-22T05:38:37;16.25;;;14.05;;
45007;SDS011;30743;52.008;5.644;2023-06-22T05:41:03;18.00;;;12.65;;
45007;SDS011;30743;52.008;5.644;2023-06-22T05:43:29;15.07;;;13.13;;
45007;SDS011;30743;52.008;5.644;2023-06-22T05:45:54;17.13;;;13.32;;
45007;SDS011;30743;52.008;5.644;2023-06-22T05:48:21;16.42;;;12.98;;
45007;SDS011;30743;52.008;5.644;2023-06-22T05:50:47;12.90;;;11.50;;
45007;SDS011;30743;52.008;5.644;2023-06-22T05:53:12;16.17;;;12.05;;
45007;SDS011;30743;52.008;5.644;2023-06-22T05:55:38;15.48;;;12.65;;
45007;SDS011;30743;52.008;5.644;2023-06-22T05:58:03;15.52;;;13.00;;
45007;SDS011;30743;52.008;5.644;2023-06-22T06:00:29;13.65;;;11.82;;
45007;SDS011;30743;52.008;5.644;2023-06-22T06:02:55;13.55;;;11.60;;
45007;SDS011;30743;52.008;5.644;2023-06-22T06:05:21;12.88;;;11.07;;
45007;SDS011;30743;52.008;5.644;2023-06-22T06:07:48;12.50;;;10.70;;
45007;SDS011;30743;52.008;5.644;2023-06-22T06:10:13;13.13;;;10.65;;
45007;SDS011;30743;52.008;5.644;2023-06-22T06:12:39;12.32;;;11.02;;
45007;SDS011;30743;52.008;5.644;2023-06-22T06:15:04;11.85;;;10.23;;
45007;SDS011;30743;52.008;5.644;2023-06-22T06:17:30;10.98;;;9.77;;
45007;SDS011;30743;52.008;5.644;2023-06-22T06:19:56;12.55;;;11.25;;
45007;SDS011;30743;52.008;5.644;2023-06-22T06:22:21;10.63;;;9.50;;
45007;SDS011;30743;52.008;5.644;2023-06-22T06:24:48;10.10;;;8.77;;
45007;SDS011;30743;52.008;5.644;2023-06-22T06:27:14;10.52;;;9.15;;
45007;SDS011;30743;52.008;5.644;2023-06-22T06:29:40;11.57;;;9.73;;
45007;SDS011;30743;52.008;5.644;2023-06-22T06:32:05;11.63;;;10.23;;
45007;SDS011;30743;52.008;5.644;2023-06-22T06:34:31;10.93;;;9.50;;
45007;SDS011;30743;52.008;5.644;2023-06-22T06:36:57;12.93;;;9.77;;
45007;SDS011;30743;52.008;5.644;2023-06-22T06:39:22;11.10;;;9.00;;
45007;SDS011;30743;52.008;5.644;2023-06-22T06:41:48;11.05;;;9.95;;
45007;SDS011;30743;52.008;5.644;2023-06-22T06:44:13;10.98;;;9.75;;
45007;SDS011;30743;52.008;5.644;2023-06-22T06:46:39;9.32;;;8.32;;
45007;SDS011;30743;52.008;5.644;2023-06-22T06:49:05;14.05;;;9.73;;
45007;SDS011;30743;52.008;5.644;2023-06-22T06:51:30;11.70;;;8.65;;
45007;SDS011;30743;52.008;5.644;2023-06-22T06:53:56;9.45;;;8.02;;
45007;SDS011;30743;52.008;5.644;2023-06-22T06:56:21;9.82;;;7.30;;
45007;SDS011;30743;52.008;5.644;2023-06-22T06:58:47;7.05;;;6.35;;
45007;SDS011;30743;52.008;5.644;2023-06-22T07:01:14;8.05;;;5.93;;
45007;SDS011;30743;52.008;5.644;2023-06-22T07:03:40;8.02;;;6.32;;
45007;SDS011;30743;52.008;5.644;2023-06-22T07:06:05;8.02;;;6.68;;
45007;SDS011;30743;52.008;5.644;2023-06-22T07:08:31;9.43;;;6.78;;
45007;SDS011;30743;52.008;5.644;2023-06-22T07:10:56;6.70;;;5.97;;
45007;SDS011;30743;52.008;5.644;2023-06-22T07:13:22;8.57;;;6.22;;
45007;SDS011;30743;52.008;5.644;2023-06-22T07:15:47;6.72;;;5.90;;
45007;SDS011;30743;52.008;5.644;2023-06-22T07:18:13;6.93;;;5.85;;
45007;SDS011;30743;52.008;5.644;2023-06-22T07:20:38;8.05;;;5.57;;
45007;SDS011;30743;52.008;5.644;2023-06-22T07:23:04;7.60;;;5.38;;
45007;SDS011;30743;52.008;5.644;2023-06-22T07:25:30;8.32;;;5.68;;
45007;SDS011;30743;52.008;5.644;2023-06-22T07:28:03;6.35;;;5.15;;
45007;SDS011;30743;52.008;5.644;2023-06-22T07:30:30;6.43;;;5.18;;
45007;SDS011;30743;52.008;5.644;2023-06-22T07:32:57;5.47;;;4.97;;
45007;SDS011;30743;52.008;5.644;2023-06-22T07:35:23;6.28;;;4.82;;
45007;SDS011;30743;52.008;5.644;2023-06-22T07:37:49;4.70;;;3.58;;
45007;SDS011;30743;52.008;5.644;2023-06-22T07:40:15;4.75;;;4.10;;
45007;SDS011;30743;52.008;5.644;2023-06-22T07:42:40;5.75;;;3.83;;
45007;SDS011;30743;52.008;5.644;2023-06-22T07:45:06;5.68;;;3.78;;
45007;SDS011;30743;52.008;5.644;2023-06-22T07:47:33;4.75;;;3.75;;
45007;SDS011;30743;52.008;5.644;2023-06-22T07:50:00;7.00;;;4.45;;
45007;SDS011;30743;52.008;5.644;2023-06-22T07:52:27;6.55;;;4.10;;
45007;SDS011;30743;52.008;5.644;2023-06-22T07:54:53;6.40;;;3.47;;
45007;SDS011;30743;52.008;5.644;2023-06-22T07:57:19;4.43;;;3.42;;
45007;SDS011;30743;52.008;5.644;2023-06-22T07:59:45;6.13;;;4.50;;
45007;SDS011;30743;52.008;5.644;2023-06-22T08:02:11;4.65;;;3.85;;
45007;SDS011;30743;52.008;5.644;2023-06-22T08:04:37;2.70;;;2.13;;
45007;SDS011;30743;52.008;5.644;2023-06-22T08:07:03;3.47;;;1.85;;
45007;SDS011;30743;52.008;5.644;2023-06-22T08:09:29;2.50;;;1.48;;
45007;SDS011;30743;52.008;5.644;2023-06-22T08:11:56;2.35;;;1.67;;
45007;SDS011;30743;52.008;5.644;2023-06-22T08:14:22;5.30;;;2.10;;
45007;SDS011;30743;52.008;5.644;2023-06-22T08:16:48;3.22;;;2.22;;
45007;SDS011;30743;52.008;5.644;2023-06-22T08:19:14;4.22;;;2.80;;
45007;SDS011;30743;52.008;5.644;2023-06-22T08:21:39;3.35;;;2.40;;
45007;SDS011;30743;52.008;5.644;2023-06-22T08:24:05;2.90;;;2.30;;
45007;SDS011;30743;52.008;5.644;2023-06-22T08:26:32;3.15;;;2.70;;
45007;SDS011;30743;52.008;5.644;2023-06-22T08:29:01;3.83;;;2.90;;
45007;SDS011;30743;52.008;5.644;2023-06-22T08:31:27;4.30;;;3.08;;
45007;SDS011;30743;52.008;5.644;2023-06-22T08:33:52;3.38;;;2.65;;
45007;SDS011;30743;52.008;5.644;2023-06-22T08:36:18;4.97;;;3.95;;
45007;SDS011;30743;52.008;5.644;2023-06-22T08:38:43;3.58;;;2.70;;
45007;SDS011;30743;52.008;5.644;2023-06-22T08:41:09;4.68;;;3.00;;
45007;SDS011;30743;52.008;5.644;2023-06-22T08:43:35;3.40;;;2.60;;
45007;SDS011;30743;52.008;5.644;2023-06-22T08:46:01;3.50;;;2.65;;
45007;SDS011;30743;52.008;5.644;2023-06-22T08:48:27;4.97;;;2.92;;
45007;SDS011;30743;52.008;5.644;2023-06-22T08:50:53;4.90;;;3.53;;
45007;SDS011;30743;52.008;5.644;2023-06-22T08:53:19;5.50;;;3.45;;
45007;SDS011;30743;52.008;5.644;2023-06-22T08:55:44;4.50;;;3.35;;
45007;SDS011;30743;52.008;5.644;2023-06-22T08:58:10;4.22;;;3.10;;
45007;SDS011;30743;52.008;5.644;2023-06-22T09:00:36;4.28;;;3.35;;
45007;SDS011;30743;52.008;5.644;2023-06-22T09:03:02;5.15;;;3.35;;
45007;SDS011;30743;52.008;5.644;2023-06-22T09:05:28;3.53;;;3.00;;
45007;SDS011;30743;52.008;5.644;2023-06-22T09:07:55;4.32;;;2.92;;
45007;SDS011;30743;52.008;5.644;2023-06-22T09:10:21;3.90;;;2.90;;
45007;SDS011;30743;52.008;5.644;2023-06-22T09:12:47;3.78;;;3.03;;
45007;SDS011;30743;52.008;5.644;2023-06-22T09:15:12;4.43;;;3.13;;
45007;SDS011;30743;52.008;5.644;2023-06-22T09:17:38;4.38;;;2.67;;
45007;SDS011;30743;52.008;5.644;2023-06-22T09:20:03;4.78;;;2.60;;
45007;SDS011;30743;52.008;5.644;2023-06-22T09:22:34;4.72;;;2.67;;
45007;SDS011;30743;52.008;5.644;2023-06-22T09:25:00;3.33;;;2.47;;
45007;SDS011;30743;52.008;5.644;2023-06-22T09:27:25;3.47;;;2.58;;
45007;SDS011;30743;52.008;5.644;2023-06-22T09:29:51;3.13;;;2.50;;
45007;SDS011;30743;52.008;5.644;2023-06-22T09:32:16;3.90;;;2.95;;
45007;SDS011;30743;52.008;5.644;2023-06-22T09:34:42;4.53;;;2.55;;
45007;SDS011;30743;52.008;5.644;2023-06-22T09:37:07;3.67;;;2.22;;
45007;SDS011;30743;52.008;5.644;2023-06-22T09:39:33;4.10;;;2.28;;
45007;SDS011;30743;52.008;5.644;2023-06-22T09:41:59;4.03;;;2.47;;
45007;SDS011;30743;52.008;5.644;2023-06-22T09:44:25;3.20;;;2.38;;
45007;SDS011;30743;52.008;5.644;2023-06-22T09:46:50;3.15;;;2.30;;
45007;SDS011;30743;52.008;5.644;2023-06-22T09:49:16;4.65;;;2.00;;
45007;SDS011;30743;52.008;5.644;2023-06-22T09:51:41;2.80;;;2.35;;
45007;SDS011;30743;52.008;5.644;2023-06-22T09:54:07;4.10;;;2.88;;
45007;SDS011;30743;52.008;5.644;2023-06-22T09:56:32;2.65;;;2.17;;
45007;SDS011;30743;52.008;5.644;2023-06-22T09:58:58;4.03;;;2.20;;
45007;SDS011;30743;52.008;5.644;2023-06-22T10:01:23;3.42;;;2.35;;
45007;SDS011;30743;52.008;5.644;2023-06-22T10:03:49;2.80;;;2.30;;
45007;SDS011;30743;52.008;5.644;2023-06-22T10:06:19;3.22;;;2.28;;
45007;SDS011;30743;52.008;5.644;2023-06-22T10:08:45;3.17;;;2.40;;
45007;SDS011;30743;52.008;5.644;2023-06-22T10:11:10;3.10;;;2.25;;
45007;SDS011;30743;52.008;5.644;2023-06-22T10:13:36;4.07;;;2.30;;
45007;SDS011;30743;52.008;5.644;2023-06-22T10:16:01;2.63;;;1.92;;
45007;SDS011;30743;52.008;5.644;2023-06-22T10:18:27;3.03;;;2.20;;
45007;SDS011;30743;52.008;5.644;2023-06-22T10:20:52;4.60;;;2.50;;
45007;SDS011;30743;52.008;5.644;2023-06-22T10:23:18;5.22;;;2.90;;
45007;SDS011;30743;52.008;5.644;2023-06-22T10:25:44;4.07;;;2.90;;
45007;SDS011;30743;52.008;5.644;2023-06-22T10:28:10;5.30;;;2.80;;
45007;SDS011;30743;52.008;5.644;2023-06-22T10:30:37;3.67;;;2.55;;
45007;SDS011;30743;52.008;5.644;2023-06-22T10:33:06;6.60;;;2.60;;
45007;SDS011;30743;52.008;5.644;2023-06-22T10:35:32;2.97;;;2.45;;
45007;SDS011;30743;52.008;5.644;2023-06-22T10:37:57;4.15;;;2.75;;
45007;SDS011;30743;52.008;5.644;2023-06-22T10:40:23;2.83;;;2.45;;
45007;SDS011;30743;52.008;5.644;2023-06-22T10:42:48;3.10;;;2.50;;
45007;SDS011;30743;52.008;5.644;2023-06-22T10:45:15;2.97;;;2.30;;
45007;SDS011;30743;52.008;5.644;2023-06-22T10:47:40;2.67;;;2.28;;
45007;SDS011;30743;52.008;5.644;2023-06-22T10:50:07;3.30;;;2.45;;
45007;SDS011;30743;52.008;5.644;2023-06-22T10:52:33;3.15;;;2.25;;
45007;SDS011;30743;52.008;5.644;2023-06-22T10:54:58;3.47;;;2.60;;
45007;SDS011;30743;52.008;5.644;2023-06-22T10:57:24;5.25;;;3.28;;
45007;SDS011;30743;52.008;5.644;2023-06-22T10:59:49;5.95;;;3.38;;
45007;SDS011;30743;52.008;5.644;2023-06-22T11:02:15;3.70;;;3.15;;
45007;SDS011;30743;52.008;5.644;2023-06-22T11:04:40;4.60;;;3.40;;
45007;SDS011;30743;52.008;5.644;2023-06-22T11:07:06;6.38;;;4.03;;
45007;SDS011;30743;52.008;5.644;2023-06-22T11:09:31;5.57;;;3.95;;
45007;SDS011;30743;52.008;5.644;2023-06-22T11:11:57;5.40;;;3.97;;
45007;SDS011;30743;52.008;5.644;2023-06-22T11:14:23;4.25;;;3.40;;
45007;SDS011;30743;52.008;5.644;2023-06-22T11:16:50;4.03;;;3.50;;
45007;SDS011;30743;52.008;5.644;2023-06-22T11:19:15;3.92;;;3.40;;
45007;SDS011;30743;52.008;5.644;2023-06-22T11:21:41;4.65;;;3.90;;
45007;SDS011;30743;52.008;5.644;2023-06-22T11:24:06;4.88;;;3.90;;
45007;SDS011;30743;52.008;5.644;2023-06-22T11:26:32;9.63;;;4.72;;
45007;SDS011;30743;52.008;5.644;2023-06-22T11:28:59;5.88;;;3.70;;
45007;SDS011;30743;52.008;5.644;2023-06-22T11:31:24;5.50;;;4.10;;
45007;SDS011;30743;52.008;5.644;2023-06-22T11:33:50;5.40;;;4.15;;
45007;SDS011;30743;52.008;5.644;2023-06-22T11:36:16;7.68;;;4.30;;
45007;SDS011;30743;52.008;5.644;2023-06-22T11:38:43;5.55;;;4.47;;
45007;SDS011;30743;52.008;5.644;2023-06-22T11:41:08;7.93;;;4.65;;
45007;SDS011;30743;52.008;5.644;2023-06-22T11:43:35;5.30;;;4.70;;
45007;SDS011;30743;52.008;5.644;2023-06-22T11:46:02;7.07;;;5.32;;
45007;SDS011;30743;52.008;5.644;2023-06-22T11:48:28;7.45;;;4.78;;
45007;SDS011;30743;52.008;5.644;2023-06-22T11:50:54;7.10;;;4.90;;
45007;SDS011;30743;52.008;5.644;2023-06-22T11:53:20;5.90;;;5.30;;
45007;SDS011;30743;52.008;5.644;2023-06-22T11:55:46;7.70;;;5.80;;
45007;SDS011;30743;52.008;5.644;2023-06-22T11:58:12;9.63;;;5.35;;
45007;SDS011;30743;52.008;5.644;2023-06-22T12:00:38;9.05;;;5.93;;
45007;SDS011;30743;52.008;5.644;2023-06-22T12:03:03;6.97;;;5.85;;
45007;SDS011;30743;52.008;5.644;2023-06-22T12:05:29;6.78;;;5.20;;
45007;SDS011;30743;52.008;5.644;2023-06-22T12:07:55;6.30;;;5.28;;
45007;SDS011;30743;52.008;5.644;2023-06-22T12:10:21;8.48;;;6.10;;
45007;SDS011;30743;52.008;5.644;2023-06-22T12:12:47;7.20;;;5.93;;
45007;SDS011;30743;52.008;5.644;2023-06-22T12:15:13;9.18;;;5.75;;
45007;SDS011;30743;52.008;5.644;2023-06-22T12:17:39;8.32;;;5.72;;
45007;SDS011;30743;52.008;5.644;2023-06-22T12:20:05;11.40;;;6.40;;
45007;SDS011;30743;52.008;5.644;2023-06-22T12:22:32;8.02;;;6.07;;
45007;SDS011;30743;52.008;5.644;2023-06-22T12:24:57;8.80;;;6.10;;
45007;SDS011;30743;52.008;5.644;2023-06-22T12:27:23;7.65;;;6.45;;
45007;SDS011;30743;52.008;5.644;2023-06-22T12:29:49;7.93;;;6.22;;
45007;SDS011;30743;52.008;5.644;2023-06-22T12:32:15;8.50;;;6.60;;
45007;SDS011;30743;52.008;5.644;2023-06-22T12:34:44;8.57;;;6.30;;
45007;SDS011;30743;52.008;5.644;2023-06-22T12:37:10;7.68;;;6.68;;
45007;SDS011;30743;52.008;5.644;2023-06-22T12:39:35;7.55;;;6.38;;
45007;SDS011;30743;52.008;5.644;2023-06-22T12:42:01;9.88;;;7.10;;
45007;SDS011;30743;52.008;5.644;2023-06-22T12:44:27;7.43;;;6.72;;
45007;SDS011;30743;52.008;5.644;2023-06-22T12:46:53;8.10;;;7.20;;
45007;SDS011;30743;52.008;5.644;2023-06-22T12:49:18;9.25;;;7.68;;
45007;SDS011;30743;52.008;5.644;2023-06-22T12:51:44;8.02;;;7.32;;
45007;SDS011;30743;52.008;5.644;2023-06-22T12:54:10;7.80;;;6.75;;
45007;SDS011;30743;52.008;5.644;2023-06-22T12:56:36;8.43;;;7.18;;
45007;SDS011;30743;52.008;5.644;2023-06-22T12:59:03;8.90;;;7.40;;
45007;SDS011;30743;52.008;5.644;2023-06-22T13:01:29;8.52;;;7.68;;
45007;SDS011;30743;52.008;5.644;2023-06-22T13:03:56;9.20;;;7.95;;
45007;SDS011;30743;52.008;5.644;2023-06-22T13:06:23;9.90;;;7.75;;
45007;SDS011;30743;52.008;5.644;2023-06-22T13:08:48;10.02;;;8.30;;
45007;SDS011;30743;52.008;5.644;2023-06-22T13:11:14;11.35;;;8.82;;
45007;SDS011;30743;52.008;5.644;2023-06-22T13:13:40;9.70;;;8.52;;
45007;SDS011;30743;52.008;5.644;2023-06-22T13:16:06;9.27;;;8.25;;
45007;SDS011;30743;52.008;5.644;2023-06-22T13:18:32;11.27;;;8.70;;
45007;SDS011;30743;52.008;5.644;2023-06-22T13:20:59;11.20;;;8.80;;
45007;SDS011;30743;52.008;5.644;2023-06-22T13:23:25;9.25;;;8.25;;
45007;SDS011;30743;52.008;5.644;2023-06-22T13:25:50;10.10;;;9.10;;
45007;SDS011;30743;52.008;5.644;2023-06-22T13:28:16;9.85;;;8.85;;
45007;SDS011;30743;52.008;5.644;2023-06-22T13:30:42;9.57;;;8.63;;
45007;SDS011;30743;52.008;5.644;2023-06-22T13:33:10;9.65;;;8.75;;
45007;SDS011;30743;52.008;5.644;2023-06-22T13:35:35;10.60;;;9.50;;
45007;SDS011;30743;52.008;5.644;2023-06-22T13:38:02;9.75;;;8.50;;
45007;SDS011;30743;52.008;5.644;2023-06-22T13:40:28;9.70;;;8.23;;
45007;SDS011;30743;52.008;5.644;2023-06-22T13:42:53;10.40;;;8.35;;
45007;SDS011;30743;52.008;5.644;2023-06-22T13:45:19;10.50;;;8.52;;
45007;SDS011;30743;52.008;5.644;2023-06-22T13:47:45;9.43;;;7.97;;
45007;SDS011;30743;52.008;5.644;2023-06-22T13:50:10;8.95;;;8.05;;
45007;SDS011;30743;52.008;5.644;2023-06-22T13:52:37;10.80;;;9.57;;
45007;SDS011;30743;52.008;5.644;2023-06-22T13:55:03;10.27;;;8.90;;
45007;SDS011;30743;52.008;5.644;2023-06-22T13:57:29;10.70;;;9.27;;
45007;SDS011;30743;52.008;5.644;2023-06-22T13:59:55;11.68;;;9.52;;
45007;SDS011;30743;52.008;5.644;2023-06-22T14:02:20;9.95;;;8.68;;
45007;SDS011;30743;52.008;5.644;2023-06-22T14:04:46;9.82;;;8.82;;
45007;SDS011;30743;52.008;5.644;2023-06-22T14:07:11;9.77;;;8.27;;
45007;SDS011;30743;52.008;5.644;2023-06-22T14:09:37;11.60;;;9.60;;
45007;SDS011;30743;52.008;5.644;2023-06-22T14:12:03;10.52;;;9.43;;
45007;SDS011;30743;52.008;5.644;2023-06-22T14:14:30;11.95;;;10.65;;
45007;SDS011;30743;52.008;5.644;2023-06-22T14:16:56;10.65;;;9.60;;
45007;SDS011;30743;52.008;5.644;2023-06-22T14:19:21;12.52;;;10.40;;
45007;SDS011;30743;52.008;5.644;2023-06-22T14:21:47;15.00;;;10.93;;
45007;SDS011;30743;52.008;5.644;2023-06-22T14:24:13;11.93;;;10.65;;
45007;SDS011;30743;52.008;5.644;2023-06-22T14:26:38;16.35;;;12.63;;
45007;SDS011;30743;52.008;5.644;2023-06-22T14:29:04;11.80;;;10.65;;
45007;SDS011;30743;52.008;5.644;2023-06-22T14:31:29;12.38;;;11.07;;
45007;SDS011;30743;52.008;5.644;2023-06-22T14:33:55;12.32;;;10.90;;
45007;SDS011;30743;52.008;5.644;2023-06-22T14:36:20;13.02;;;11.65;;
45007;SDS011;30743;52.008;5.644;2023-06-22T14:38:46;11.93;;;10.73;;
45007;SDS011;30743;52.008;5.644;2023-06-22T14:41:11;11.52;;;10.38;;
45007;SDS011;30743;52.008;5.644;2023-06-22T14:43:37;13.63;;;12.32;;
45007;SDS011;30743;52.008;5.644;2023-06-22T14:46:02;14.30;;;11.68;;
45007;SDS011;30743;52.008;5.644;2023-06-22T14:48:28;12.65;;;11.38;;
45007;SDS011;30743;52.008;5.644;2023-06-22T14:50:54;14.07;;;12.57;;